createdAt,value
2019-05-19T00:01:28.316Z,92.20
2019-05-19T00:03:55.930Z,92.70
2019-05-19T00:06:23.481Z,92.80
2019-05-19T00:08:51.032Z,93.40
2019-05-19T00:11:18.570Z,93.70
2019-05-19T00:13:46.128Z,94.00
2019-05-19T00:16:13.735Z,94.20
2019-05-19T00:18:41.296Z,93.50
2019-05-19T00:21:08.830Z,94.00
2019-05-19T00:23:36.399Z,94.10
2019-05-19T00:26:03.931Z,94.40
2019-05-19T00:28:31.496Z,94.40
2019-05-19T00:30:59.039Z,94.60
2019-05-19T00:33:26.604Z,94.90
2019-05-19T00:35:54.270Z,95.30
2019-05-19T00:38:21.833Z,94.70
2019-05-19T00:40:49.365Z,94.30
2019-05-19T00:43:16.942Z,94.50
2019-05-19T00:45:44.496Z,94.50
2019-05-19T00:48:12.061Z,94.50
2019-05-19T00:50:39.605Z,94.70
2019-05-19T00:53:07.169Z,94.80
2019-05-19T00:55:34.727Z,94.80
2019-05-19T00:58:02.294Z,94.90
2019-05-19T01:00:29.833Z,94.80
2019-05-19T01:02:57.396Z,94.80
2019-05-19T01:05:24.933Z,94.80
2019-05-19T01:07:52.498Z,95.10
2019-05-19T01:10:20.370Z,95.10
2019-05-19T01:12:47.925Z,95.40
2019-05-19T01:15:15.466Z,95.50
2019-05-19T01:17:43.028Z,95.70
2019-05-19T01:20:10.564Z,96.00
2019-05-19T01:22:38.134Z,96.20
2019-05-19T01:25:08.836Z,96.20
2019-05-19T01:27:36.407Z,96.20
2019-05-19T01:30:05.407Z,96.40
2019-05-19T01:32:32.984Z,96.20
2019-05-19T01:35:00.529Z,96.40
2019-05-19T01:37:28.139Z,96.60
2019-05-19T01:39:55.817Z,96.70
2019-05-19T01:42:42.797Z,97.00
2019-05-19T01:45:10.393Z,96.50
2019-05-19T01:47:37.958Z,95.80
2019-05-19T01:50:17.526Z,95.20
2019-05-19T01:52:35.068Z,95.40
2019-05-19T01:55:02.778Z,95.40
2019-05-19T01:57:30.347Z,95.30
2019-05-19T01:59:57.881Z,95.20
2019-05-19T02:02:25.417Z,95.10
2019-05-19T02:04:53.014Z,95.00
2019-05-19T02:07:20.557Z,94.80
2019-05-19T02:09:48.124Z,95.10
2019-05-19T02:12:15.661Z,95.10
2019-05-19T02:14:43.228Z,95.30
2019-05-19T02:17:10.764Z,96.40
2019-05-19T02:19:38.320Z,97.00
2019-05-19T02:22:05.852Z,96.20
2019-05-19T02:24:33.420Z,96.00
2019-05-19T02:27:00.957Z,96.20
2019-05-19T02:29:28.516Z,96.10
2019-05-19T02:31:56.056Z,96.10
2019-05-19T02:34:23.653Z,95.70
2019-05-19T02:36:51.184Z,95.70
2019-05-19T02:39:18.752Z,95.80
2019-05-19T02:41:47.160Z,95.80
2019-05-19T02:44:14.724Z,95.70
2019-05-19T02:46:42.258Z,95.60
2019-05-19T02:49:10.290Z,95.50
2019-05-19T02:51:37.824Z,95.80
2019-05-19T02:54:05.561Z,95.90
2019-05-19T02:56:33.099Z,96.30
2019-05-19T02:59:00.679Z,96.40
2019-05-19T03:01:28.221Z,95.90
2019-05-19T03:03:55.787Z,95.90
2019-05-19T03:06:23.322Z,95.70
2019-05-19T03:08:50.883Z,95.90
2019-05-19T03:11:18.419Z,96.40
2019-05-19T03:13:45.982Z,96.50
2019-05-19T03:16:13.517Z,96.20
2019-05-19T03:18:41.093Z,95.90
2019-05-19T03:21:11.664Z,95.80
2019-05-19T03:23:38.084Z,95.80
2019-05-19T03:26:05.623Z,95.90
2019-05-19T03:28:33.185Z,95.70
2019-05-19T03:31:18.690Z,95.80
2019-05-19T03:33:50.655Z,96.00
2019-05-19T03:36:18.196Z,96.30
2019-05-19T03:38:45.786Z,96.00
2019-05-19T03:41:13.313Z,96.20
2019-05-19T03:43:40.851Z,96.40
2019-05-19T03:46:08.472Z,96.40
2019-05-19T03:48:36.012Z,96.30
2019-05-19T03:51:03.590Z,96.20
2019-05-19T03:53:31.134Z,96.00
2019-05-19T03:55:58.692Z,96.00
2019-05-19T03:58:26.312Z,96.10
2019-05-19T04:00:53.973Z,96.20
2019-05-19T04:03:21.510Z,96.40
2019-05-19T04:05:49.080Z,96.90
2019-05-19T04:08:16.886Z,96.80
2019-05-19T04:10:44.449Z,96.90
2019-05-19T04:13:11.985Z,97.10
2019-05-19T04:15:39.583Z,97.40
2019-05-19T04:18:07.181Z,97.80
2019-05-19T04:20:34.731Z,97.60
2019-05-19T04:23:02.757Z,97.30
2019-05-19T04:25:30.639Z,96.70
2019-05-19T04:27:58.201Z,97.30
2019-05-19T04:30:25.770Z,96.80
2019-05-19T04:32:53.307Z,96.50
2019-05-19T04:35:20.872Z,96.30
2019-05-19T04:37:48.441Z,96.60
2019-05-19T04:40:16.013Z,96.60
2019-05-19T04:42:43.567Z,96.50
2019-05-19T04:45:11.140Z,96.50
2019-05-19T04:47:38.678Z,96.50
2019-05-19T04:50:06.418Z,96.50
2019-05-19T04:52:33.958Z,96.30
2019-05-19T04:55:01.543Z,96.20
2019-05-19T04:57:29.060Z,96.60
2019-05-19T04:59:56.621Z,96.50
2019-05-19T05:02:24.159Z,96.50
2019-05-19T05:04:51.716Z,96.60
2019-05-19T05:07:19.252Z,96.80
2019-05-19T05:09:46.812Z,96.90
2019-05-19T05:12:14.380Z,97.20
2019-05-19T05:14:41.922Z,97.30
2019-05-19T05:17:09.494Z,97.20
2019-05-19T05:19:37.025Z,97.30
2019-05-19T05:22:04.588Z,97.20
2019-05-19T05:24:32.128Z,97.40
2019-05-19T05:26:59.686Z,97.50
2019-05-19T05:29:27.232Z,97.60
2019-05-19T05:31:54.798Z,97.80
2019-05-19T05:34:22.336Z,97.70
2019-05-19T05:36:49.908Z,97.80
2019-05-19T05:39:17.532Z,97.90
2019-05-19T05:41:45.093Z,97.40
2019-05-19T05:44:12.624Z,97.40
2019-05-19T05:46:40.193Z,97.50
2019-05-19T05:49:07.734Z,97.10
2019-05-19T05:51:35.298Z,97.00
2019-05-19T05:54:02.828Z,97.80
2019-05-19T05:56:30.392Z,97.70
2019-05-19T05:58:57.929Z,97.70
2019-05-19T06:01:25.489Z,97.20
2019-05-19T06:03:53.030Z,97.10
2019-05-19T06:06:20.589Z,97.00
2019-05-19T06:08:48.148Z,97.50
2019-05-19T06:11:15.716Z,97.30
2019-05-19T06:13:43.255Z,97.50
2019-05-19T06:16:10.838Z,97.00
2019-05-19T06:18:38.685Z,96.90
2019-05-19T06:21:06.245Z,96.90
2019-05-19T06:23:33.780Z,97.10
2019-05-19T06:26:01.345Z,96.90
2019-05-19T06:28:28.932Z,97.10
2019-05-19T06:30:56.507Z,96.70
2019-05-19T06:33:24.041Z,97.40
2019-05-19T06:35:51.657Z,97.40
2019-05-19T06:38:19.235Z,97.30
2019-05-19T06:40:46.795Z,97.10
2019-05-19T06:43:14.334Z,96.90
2019-05-19T06:45:41.904Z,96.70
2019-05-19T06:48:09.462Z,96.90
2019-05-19T06:50:40.391Z,97.70
2019-05-19T06:53:14.192Z,97.30
2019-05-19T06:55:35.617Z,97.40
2019-05-19T06:58:03.274Z,97.40
2019-05-19T07:00:30.813Z,97.30
2019-05-19T07:02:58.391Z,97.30
2019-05-19T07:05:25.912Z,97.10
2019-05-19T07:07:53.483Z,97.30
2019-05-19T07:10:21.020Z,97.60
2019-05-19T07:12:48.894Z,97.40
2019-05-19T07:15:16.992Z,97.70
2019-05-19T07:17:44.693Z,96.80
2019-05-19T07:20:12.270Z,96.90
2019-05-19T07:22:39.833Z,96.70
2019-05-19T07:25:07.696Z,96.60
2019-05-19T07:27:35.261Z,96.50
2019-05-19T07:30:04.054Z,96.10
2019-05-19T07:32:31.609Z,96.20
2019-05-19T07:34:59.185Z,96.00
2019-05-19T07:37:26.757Z,95.60
2019-05-19T07:39:54.309Z,96.10
2019-05-19T07:42:21.889Z,96.10
2019-05-19T07:44:49.420Z,95.40
2019-05-19T07:47:17.287Z,95.90
2019-05-19T07:49:45.142Z,95.50
2019-05-19T07:52:13.013Z,94.80
2019-05-19T07:54:40.545Z,95.00
2019-05-19T07:57:08.112Z,94.30
2019-05-19T07:59:35.705Z,94.20
2019-05-19T08:02:03.272Z,94.70
2019-05-19T08:04:30.890Z,94.30
2019-05-19T08:06:59.125Z,93.70
2019-05-19T08:09:26.688Z,93.40
2019-05-19T08:11:54.341Z,94.40
2019-05-19T08:14:22.171Z,93.40
2019-05-19T08:16:49.750Z,92.70
2019-05-19T08:19:17.602Z,92.90
2019-05-19T08:21:45.167Z,93.00
2019-05-19T08:24:13.030Z,93.20
2019-05-19T08:26:40.593Z,93.80
2019-05-19T08:29:08.164Z,93.50
2019-05-19T08:31:35.837Z,93.10
2019-05-19T08:34:03.390Z,94.80
2019-05-19T08:36:31.233Z,95.00
2019-05-19T08:38:59.097Z,93.20
2019-05-19T08:41:26.654Z,93.50
2019-05-19T08:43:54.220Z,93.00
2019-05-19T08:46:21.759Z,93.40
2019-05-19T08:48:49.363Z,92.90
2019-05-19T08:51:17.121Z,92.70
2019-05-19T08:53:44.964Z,93.30
2019-05-19T08:56:12.501Z,92.30
2019-05-19T08:58:40.068Z,92.90
2019-05-19T09:01:07.600Z,91.80
2019-05-19T09:03:35.168Z,92.80
2019-05-19T09:06:02.705Z,93.40
2019-05-19T09:08:30.269Z,94.00
2019-05-19T09:10:58.133Z,92.80
2019-05-19T09:13:25.693Z,92.80
2019-05-19T09:15:53.530Z,92.80
2019-05-19T09:18:21.097Z,94.00
2019-05-19T09:20:48.977Z,93.40
2019-05-19T09:23:16.613Z,92.50
2019-05-19T09:25:44.139Z,92.70
2019-05-19T09:28:11.695Z,91.60
2019-05-19T09:30:39.237Z,91.80
2019-05-19T09:33:06.800Z,88.90
2019-05-19T09:35:34.347Z,88.00
2019-05-19T09:38:01.908Z,86.00
2019-05-19T09:40:29.481Z,82.50
2019-05-19T09:42:57.024Z,82.50
2019-05-19T09:45:24.845Z,82.70
2019-05-19T09:47:52.480Z,88.90
2019-05-19T09:50:20.021Z,90.00
2019-05-19T09:52:47.597Z,91.10
2019-05-19T09:55:15.136Z,90.50
2019-05-19T09:57:42.953Z,89.70
2019-05-19T10:00:11.761Z,90.70
2019-05-19T10:02:39.326Z,90.60
2019-05-19T10:05:06.856Z,90.20
2019-05-19T10:07:34.420Z,88.80
2019-05-19T10:10:12.343Z,88.70
2019-05-19T10:12:39.903Z,88.10
2019-05-19T10:15:07.444Z,86.20
2019-05-19T10:17:35.016Z,84.30
2019-05-19T10:20:03.384Z,86.90
2019-05-19T10:22:31.025Z,88.30
2019-05-19T10:25:18.578Z,90.40
2019-05-19T10:27:27.926Z,89.50
2019-05-19T10:29:55.488Z,89.00
2019-05-19T10:32:23.331Z,87.80
2019-05-19T10:34:50.900Z,84.80
2019-05-19T10:37:18.433Z,88.10
2019-05-19T10:39:45.997Z,85.90
2019-05-19T10:42:13.535Z,86.40
2019-05-19T10:44:41.099Z,87.20
2019-05-19T10:47:08.633Z,88.20
2019-05-19T10:49:36.195Z,89.30
2019-05-19T10:52:03.805Z,83.90
2019-05-19T10:54:31.374Z,83.40
2019-05-19T10:56:58.913Z,82.40
2019-05-19T10:59:26.480Z,80.90
2019-05-19T11:01:54.021Z,81.50
2019-05-19T11:04:21.577Z,77.10
2019-05-19T11:06:49.364Z,81.80
2019-05-19T11:09:17.173Z,82.30
2019-05-19T11:11:44.708Z,77.30
2019-05-19T11:14:12.357Z,77.40
2019-05-19T11:16:39.893Z,74.50
2019-05-19T11:19:07.461Z,76.00
2019-05-19T11:21:35.006Z,75.80
2019-05-19T11:24:02.568Z,73.40
2019-05-19T11:26:30.360Z,69.20
2019-05-19T11:28:57.950Z,72.30
2019-05-19T11:31:25.779Z,68.60
2019-05-19T11:33:53.320Z,72.80
2019-05-19T11:36:21.209Z,70.90
2019-05-19T11:38:48.753Z,73.90
2019-05-19T11:41:16.310Z,73.40
2019-05-19T11:43:43.864Z,74.30
2019-05-19T11:46:11.412Z,75.40
2019-05-19T11:48:38.957Z,76.00
2019-05-19T11:51:06.520Z,72.00
2019-05-19T11:53:34.060Z,72.30
2019-05-19T11:56:06.704Z,70.00
2019-05-19T11:58:30.891Z,65.60
2019-05-19T12:00:58.827Z,71.40
2019-05-19T12:03:26.359Z,71.00
2019-05-19T12:05:53.966Z,71.60
2019-05-19T12:08:21.547Z,69.60
2019-05-19T12:10:49.110Z,69.50
2019-05-19T12:13:16.649Z,72.90
2019-05-19T12:15:44.213Z,70.30
2019-05-19T12:18:11.754Z,67.90
2019-05-19T12:20:39.320Z,68.20
2019-05-19T12:23:07.114Z,65.80
2019-05-19T12:25:34.648Z,69.20
2019-05-19T12:28:02.568Z,70.10
2019-05-19T12:30:30.132Z,70.40
2019-05-19T12:32:59.420Z,70.90
2019-05-19T12:35:27.085Z,72.90
2019-05-19T12:37:54.651Z,71.90
2019-05-19T12:40:22.851Z,71.80
2019-05-19T12:42:50.560Z,69.60
2019-05-19T12:45:18.100Z,67.60
2019-05-19T12:47:45.898Z,64.80
2019-05-19T12:50:13.431Z,65.50
2019-05-19T12:52:40.999Z,66.50
2019-05-19T12:55:08.543Z,70.60
2019-05-19T12:57:36.113Z,66.50
2019-05-19T13:00:04.021Z,69.00
2019-05-19T13:02:31.590Z,69.90
2019-05-19T13:05:04.751Z,67.90
2019-05-19T13:07:28.455Z,68.10
2019-05-19T13:09:55.991Z,67.80
2019-05-19T13:12:23.647Z,68.70
2019-05-19T13:14:51.505Z,68.50
2019-05-19T13:17:19.073Z,70.00
2019-05-19T13:19:46.618Z,69.00
2019-05-19T13:22:14.182Z,71.00
2019-05-19T13:24:41.730Z,68.30
2019-05-19T13:27:09.291Z,70.30
2019-05-19T13:29:36.835Z,70.10
2019-05-19T13:32:04.413Z,70.40
2019-05-19T13:34:31.942Z,72.60
2019-05-19T13:36:59.480Z,72.30
2019-05-19T13:39:27.296Z,72.20
2019-05-19T13:41:54.877Z,73.10
2019-05-19T13:44:22.449Z,75.50
2019-05-19T13:46:49.983Z,76.20
2019-05-19T13:49:17.548Z,78.30
2019-05-19T13:51:45.129Z,80.70
2019-05-19T13:54:12.933Z,80.90
2019-05-19T13:56:40.473Z,78.30
2019-05-19T13:59:08.037Z,80.00
2019-05-19T14:01:35.577Z,81.50
2019-05-19T14:04:03.141Z,77.40
2019-05-19T14:06:30.693Z,81.50
2019-05-19T14:08:58.624Z,80.30
2019-05-19T14:11:26.156Z,82.00
2019-05-19T14:13:53.721Z,81.40
2019-05-19T14:16:21.257Z,81.90
2019-05-19T14:18:49.072Z,81.60
2019-05-19T14:21:16.615Z,79.20
2019-05-19T14:23:44.183Z,80.00
2019-05-19T14:26:11.726Z,77.10
2019-05-19T14:28:39.289Z,75.90
2019-05-19T14:31:06.828Z,75.00
2019-05-19T14:33:34.410Z,75.60
2019-05-19T14:36:02.628Z,77.00
2019-05-19T14:38:30.302Z,77.50
2019-05-19T14:40:57.843Z,76.10
2019-05-19T14:43:27.044Z,73.80
2019-05-19T14:45:54.583Z,74.80
2019-05-19T14:48:22.145Z,75.90
2019-05-19T14:50:50.018Z,79.70
2019-05-19T14:53:17.896Z,77.30
2019-05-19T14:55:45.420Z,78.20
2019-05-19T14:58:12.990Z,78.50
2019-05-19T15:00:40.864Z,74.90
2019-05-19T15:03:08.447Z,75.60
2019-05-19T15:05:35.988Z,76.30
2019-05-19T15:08:03.549Z,73.90
2019-05-19T15:10:31.412Z,75.60
2019-05-19T15:12:58.944Z,75.30
2019-05-19T15:15:26.512Z,76.00
2019-05-19T15:17:54.050Z,75.50
2019-05-19T15:20:21.616Z,76.50
2019-05-19T15:22:49.224Z,76.00
2019-05-19T15:25:16.801Z,76.00
2019-05-19T15:27:58.951Z,75.80
2019-05-19T15:30:14.072Z,75.30
2019-05-19T15:32:41.661Z,74.10
2019-05-19T15:35:09.216Z,74.10
2019-05-19T15:37:36.757Z,74.80
2019-05-19T15:40:07.280Z,74.40
2019-05-19T15:42:34.813Z,75.70
2019-05-19T15:45:02.673Z,84.30
2019-05-19T15:47:30.537Z,77.50
2019-05-19T15:49:58.104Z,78.30
2019-05-19T15:52:25.640Z,74.70
2019-05-19T15:54:53.520Z,76.10
2019-05-19T15:57:21.066Z,78.40
2019-05-19T15:59:48.642Z,74.90
2019-05-19T16:02:16.267Z,75.10
2019-05-19T16:04:43.812Z,71.20
2019-05-19T16:07:11.733Z,70.00
2019-05-19T16:09:39.333Z,71.30
2019-05-19T16:12:06.902Z,72.30
2019-05-19T16:14:34.466Z,71.00
2019-05-19T16:17:02.235Z,70.30
2019-05-19T16:19:30.161Z,70.50
2019-05-19T16:21:58.010Z,71.00
2019-05-19T16:24:25.582Z,69.30
2019-05-19T16:26:53.132Z,69.40
2019-05-19T16:29:20.733Z,68.30
2019-05-19T16:31:48.269Z,67.70
2019-05-19T16:34:15.841Z,67.60
2019-05-19T16:36:43.376Z,70.00
2019-05-19T16:39:11.256Z,72.10
2019-05-19T16:41:38.920Z,74.10
2019-05-19T16:44:06.507Z,76.00
2019-05-19T16:46:34.041Z,64.30
2019-05-19T16:49:01.606Z,64.70
2019-05-19T16:51:29.157Z,67.90
2019-05-19T16:53:58.356Z,70.40
2019-05-19T16:56:25.893Z,73.50
2019-05-19T16:58:53.469Z,76.20
2019-05-19T17:01:21.005Z,78.20
2019-05-19T17:03:48.544Z,77.10
2019-05-19T17:06:16.441Z,82.10
2019-05-19T17:08:43.980Z,86.60
2019-05-19T17:11:18.365Z,84.00
2019-05-19T17:13:41.308Z,86.50
2019-05-19T17:16:08.872Z,90.10
2019-05-19T17:18:36.409Z,90.80
2019-05-19T17:21:03.981Z,91.00
2019-05-19T17:23:31.520Z,90.30
2019-05-19T17:25:59.085Z,91.00
2019-05-19T17:28:26.629Z,90.90
2019-05-19T17:30:54.204Z,91.00
2019-05-19T17:33:21.741Z,86.50
2019-05-19T17:35:49.316Z,88.70
2019-05-19T17:38:17.172Z,90.60
2019-05-19T17:40:45.042Z,88.20
2019-05-19T17:43:12.905Z,89.00
2019-05-19T17:45:40.540Z,88.20
2019-05-19T17:48:14.566Z,90.30
2019-05-19T17:50:37.441Z,91.20
2019-05-19T17:53:05.079Z,91.50
2019-05-19T17:55:33.227Z,91.40
2019-05-19T17:58:00.904Z,91.60
2019-05-19T18:00:38.883Z,92.50
2019-05-19T18:03:06.692Z,91.20
2019-05-19T18:05:34.592Z,90.80
2019-05-19T18:08:02.281Z,91.00
2019-05-19T18:10:29.836Z,90.90
2019-05-19T18:12:57.484Z,90.90
2019-05-19T18:15:25.129Z,90.80
2019-05-19T18:17:52.710Z,92.30
2019-05-19T18:20:23.899Z,93.00
2019-05-19T18:22:49.533Z,93.20
2019-05-19T18:25:17.076Z,93.50
2019-05-19T18:27:44.664Z,93.80
2019-05-19T18:30:12.194Z,94.00
2019-05-19T18:32:39.772Z,93.20
2019-05-19T18:35:07.328Z,92.90
2019-05-19T18:37:54.553Z,92.80
2019-05-19T18:40:22.092Z,92.40
2019-05-19T18:42:49.983Z,93.20
2019-05-19T18:45:18.299Z,93.50
2019-05-19T18:47:45.947Z,93.70
2019-05-19T18:50:13.485Z,93.20
2019-05-19T18:52:41.061Z,93.40
2019-05-19T18:55:09.377Z,93.50
2019-05-19T18:57:36.952Z,93.80
2019-05-19T19:00:04.861Z,94.30
2019-05-19T19:02:32.438Z,94.90
2019-05-19T19:04:59.972Z,94.60
2019-05-19T19:07:45.994Z,94.50
2019-05-19T19:10:13.528Z,94.60
2019-05-19T19:12:41.105Z,94.80
2019-05-19T19:15:08.650Z,94.90
2019-05-19T19:17:36.220Z,95.00
2019-05-19T19:20:05.141Z,94.80
2019-05-19T19:22:32.773Z,95.10
2019-05-19T19:25:00.353Z,94.90
2019-05-19T19:27:27.888Z,94.90
2019-05-19T19:30:03.456Z,94.30
2019-05-19T19:32:24.733Z,93.90
2019-05-19T19:34:52.304Z,94.10
2019-05-19T19:37:19.841Z,93.50
2019-05-19T19:39:47.424Z,93.50
2019-05-19T19:42:14.953Z,92.30
2019-05-19T19:44:42.529Z,92.60
2019-05-19T19:47:10.065Z,93.00
2019-05-19T19:49:37.629Z,93.00
2019-05-19T19:52:05.165Z,93.70
2019-05-19T19:54:32.728Z,93.20
2019-05-19T19:57:00.596Z,93.10
2019-05-19T19:59:28.205Z,93.00
2019-05-19T20:01:55.777Z,92.60
2019-05-19T20:04:23.679Z,93.00
2019-05-19T20:06:51.209Z,92.60
2019-05-19T20:09:21.321Z,93.00
2019-05-19T20:11:48.293Z,93.40
2019-05-19T20:14:15.855Z,93.40
2019-05-19T20:16:43.404Z,93.60
2019-05-19T20:19:11.297Z,93.90
2019-05-19T20:21:38.892Z,93.70
2019-05-19T20:24:06.727Z,94.40
2019-05-19T20:26:34.244Z,94.50
2019-05-19T20:29:02.237Z,94.80
2019-05-19T20:31:31.537Z,95.10
2019-05-19T20:33:59.253Z,95.70
2019-05-19T20:36:26.817Z,95.80
2019-05-19T20:38:54.725Z,96.50
2019-05-19T20:41:22.593Z,97.40
2019-05-19T20:43:50.152Z,95.90
2019-05-19T20:46:18.021Z,95.80
2019-05-19T20:48:45.557Z,95.90
2019-05-19T20:51:13.122Z,95.90
2019-05-19T20:53:40.720Z,96.00
2019-05-19T20:56:08.384Z,95.70
2019-05-19T20:58:35.912Z,96.60
2019-05-19T21:01:03.489Z,96.50
2019-05-19T21:03:31.023Z,96.30
2019-05-19T21:05:58.585Z,95.80
2019-05-19T21:08:26.184Z,95.90
2019-05-19T21:10:53.748Z,95.20
2019-05-19T21:13:21.317Z,96.00
2019-05-19T21:15:48.880Z,95.60
2019-05-19T21:18:16.417Z,96.00
2019-05-19T21:20:43.990Z,96.30
2019-05-19T21:23:11.511Z,96.80
2019-05-19T21:25:39.082Z,95.10
2019-05-19T21:28:06.621Z,96.00
2019-05-19T21:30:34.179Z,96.50
2019-05-19T21:33:01.712Z,96.40
2019-05-19T21:35:29.273Z,97.00
2019-05-19T21:37:56.808Z,97.70
2019-05-19T21:40:24.373Z,98.00
2019-05-19T21:42:52.021Z,98.10
2019-05-19T21:45:19.579Z,97.40
2019-05-19T21:47:47.124Z,97.00
2019-05-19T21:50:14.689Z,96.70
2019-05-19T21:53:01.641Z,97.00
2019-05-19T21:55:29.209Z,97.70
2019-05-19T21:57:56.746Z,97.70
2019-05-19T22:00:25.953Z,98.40
2019-05-19T22:02:53.489Z,98.40
2019-05-19T22:05:21.057Z,98.10
2019-05-19T22:07:59.037Z,98.00
2019-05-19T22:10:26.584Z,97.60
2019-05-19T22:12:54.127Z,96.90
2019-05-19T22:15:21.703Z,96.90
2019-05-19T22:17:49.576Z,97.20
2019-05-19T22:20:17.149Z,97.30
2019-05-19T22:22:44.744Z,96.90
2019-05-19T22:25:12.309Z,96.70
2019-05-19T22:27:39.847Z,96.80
2019-05-19T22:30:07.424Z,96.80
2019-05-19T22:32:34.944Z,96.80
2019-05-19T22:35:02.480Z,96.90
2019-05-19T22:37:30.050Z,96.60
2019-05-19T22:39:57.660Z,96.90
2019-05-19T22:42:25.308Z,96.80
2019-05-19T22:44:52.847Z,96.80
2019-05-19T22:47:20.700Z,97.30
2019-05-19T22:49:48.255Z,97.60
2019-05-19T22:52:15.804Z,97.30
2019-05-19T22:54:43.351Z,97.30
2019-05-19T22:57:11.245Z,97.20
2019-05-19T22:59:38.784Z,97.50
2019-05-19T23:02:09.197Z,97.50
2019-05-19T23:04:35.786Z,97.90
2019-05-19T23:07:03.349Z,97.70
2019-05-19T23:09:30.887Z,97.80
2019-05-19T23:11:58.446Z,98.00
2019-05-19T23:14:26.029Z,97.60
2019-05-19T23:16:53.704Z,97.90
2019-05-19T23:19:21.241Z,97.60
2019-05-19T23:21:48.808Z,97.40
2019-05-19T23:24:16.348Z,97.10
2019-05-19T23:26:43.909Z,96.60
2019-05-19T23:29:11.444Z,97.20
2019-05-19T23:31:39.014Z,97.00
2019-05-19T23:34:06.556Z,97.00
2019-05-19T23:36:34.116Z,96.60
2019-05-19T23:39:01.653Z,96.70
2019-05-19T23:41:29.471Z,96.70
2019-05-19T23:43:57.011Z,96.60
2019-05-19T23:46:24.578Z,97.00
2019-05-19T23:48:52.112Z,96.90
2019-05-19T23:51:19.671Z,97.10
2019-05-19T23:53:47.468Z,97.20
2019-05-19T23:56:15.034Z,97.50
2019-05-19T23:58:42.901Z,97.50
